Time;durP1;ratioP1;P1;durP2;ratioP2;P2;SDS_P1;SDS_P2;PMS_P1;PMS_P2;Temp;Humidity;BMP_temperature;BMP_pressure;BME280_temperature;BME280_humidity;BME280_pressure;Samples;Min_cycle;Max_cycle;Signal;HPM_P1;HPM_P2
2022/01/12 00:03:24;;;;;;;10.70;7.60;;;3.60;99.90;;;;;;1958106;72;22127;-89
2022/01/12 00:08:53;;;;;;;11.20;7.40;;;3.60;99.90;;;;;;1942271;72;22249;-89
2022/01/12 00:11:45;;;;;;;12.33;7.17;;;3.50;99.90;;;;;;1930241;74;21062;-89
2022/01/12 00:14:37;;;;;;;8.90;6.72;;;3.50;99.90;;;;;;1929944;74;21090;-89
2022/01/12 00:17:28;;;;;;;8.83;6.58;;;3.50;99.90;;;;;;1934740;74;21109;-89
2022/01/12 00:20:20;;;;;;;10.20;6.62;;;3.60;99.90;;;;;;1895810;75;21075;-89
2022/01/12 00:23:12;;;;;;;11.28;6.50;;;3.60;99.90;;;;;;1906728;75;21114;-88
2022/01/12 00:26:07;;;;;;;9.83;6.90;;;3.50;99.90;;;;;;1920675;74;21153;-88
2022/01/12 00:38:03;;;;;;;10.20;7.50;;;3.30;99.90;;;;;;1926164;72;27996;-89
2022/01/12 00:40:57;;;;;;;13.68;6.35;;;3.50;99.90;;;;;;1905209;75;21658;-89
2022/01/12 00:43:56;;;;;;;9.20;5.70;;;3.50;99.90;;;;;;1927210;74;21161;-89
2022/01/12 00:46:42;;;;;;;7.05;5.35;;;3.30;99.90;;;;;;1920668;73;21114;-89
2022/01/12 00:49:36;;;;;;;7.62;5.85;;;3.30;99.90;;;;;;1918074;74;21121;-90
2022/01/12 00:52:27;;;;;;;8.00;5.28;;;3.30;99.90;;;;;;1921796;73;21097;-90
2022/01/12 00:55:19;;;;;;;6.97;5.15;;;3.30;99.90;;;;;;1905447;75;21063;-90
2022/01/12 00:58:11;;;;;;;8.10;5.75;;;3.30;99.90;;;;;;1905455;75;21094;-90
2022/01/12 01:01:03;;;;;;;7.87;5.30;;;3.30;99.90;;;;;;1905294;75;21134;-88
2022/01/12 01:03:55;;;;;;;9.10;5.55;;;3.30;99.90;;;;;;1905257;75;21219;-89
2022/01/12 01:06:47;;;;;;;8.63;5.70;;;3.30;99.90;;;;;;1936396;73;21172;-89
2022/01/12 01:09:44;;;;;;;8.60;5.60;;;3.30;99.90;;;;;;1918641;74;21166;-90
2022/01/12 01:12:33;;;;;;;8.33;5.70;;;3.30;99.90;;;;;;1924715;73;21082;-91
2022/01/12 01:15:41;;;;;;;7.80;5.75;;;3.30;99.90;;;;;;1939348;73;21160;-89
2022/01/12 01:27:56;;;;;;;9.00;6.15;;;3.30;99.90;;;;;;1928036;74;21056;-89
2022/01/12 01:33:27;;;;;;;11.48;5.95;;;3.20;99.90;;;;;;1951577;72;22117;-89
2022/01/12 01:36:19;;;;;;;8.40;5.72;;;3.10;99.90;;;;;;1885079;75;21217;-89
2022/01/12 01:39:13;;;;;;;9.40;6.17;;;3.10;99.90;;;;;;1880895;75;21051;-90
2022/01/12 01:42:15;;;;;;;6.92;5.17;;;3.10;99.90;;;;;;1873180;76;21168;-90
2022/01/12 01:54:46;;;;;;;10.00;5.47;;;3.10;99.90;;;;;;1937643;73;21090;-89
2022/01/12 02:00:24;;;;;;;8.28;6.17;;;3.00;99.90;;;;;;1972122;72;22194;-90
2022/01/12 02:03:18;;;;;;;9.60;5.53;;;3.10;99.90;;;;;;1927976;74;21066;-90
2022/01/12 02:06:12;;;;;;;8.15;6.17;;;3.10;99.90;;;;;;1905112;75;21133;-89
2022/01/12 02:09:05;;;;;;;8.15;5.75;;;3.10;99.90;;;;;;1905356;75;21058;-89
2022/01/12 02:12:15;;;;;;;8.05;6.12;;;3.10;99.90;;;;;;1917826;74;21122;-89
2022/01/12 02:15:14;;;;;;;9.48;6.00;;;3.10;99.90;;;;;;1932438;74;21134;-89
2022/01/12 02:18:15;;;;;;;9.33;5.85;;;3.10;99.90;;;;;;1905209;75;21197;-89
2022/01/12 02:36:59;;;;;;;8.55;5.03;;;3.10;99.90;;;;;;1905106;75;21213;-88
2022/01/12 02:39:54;;;;;;;7.30;4.75;;;3.10;99.90;;;;;;1904783;75;21102;-90
2022/01/12 02:54:54;;;;;;;8.28;4.72;;;2.90;99.90;;;;;;1923722;74;21091;-89
2022/01/12 02:57:46;;;;;;;6.58;4.70;;;2.80;99.90;;;;;;1905252;75;21051;-90
2022/01/12 03:01:02;;;;;;;7.35;4.78;;;2.90;99.90;;;;;;1905231;75;21105;-89
2022/01/12 03:03:43;;;;;;;5.83;4.42;;;2.90;99.90;;;;;;1905244;75;21114;-89
2022/01/12 03:06:38;;;;;;;7.70;4.67;;;2.80;99.90;;;;;;1905167;75;21112;-89
2022/01/12 03:09:29;;;;;;;8.03;5.05;;;2.80;99.90;;;;;;1905496;75;21056;-90
2022/01/12 03:12:26;;;;;;;7.67;5.08;;;2.70;99.90;;;;;;1918883;74;21117;-90
2022/01/12 03:17:55;;;;;;;8.63;4.50;;;2.80;99.90;;;;;;1944139;72;22143;-90
2022/01/12 03:20:48;;;;;;;6.90;4.65;;;2.80;99.90;;;;;;1905082;75;21169;-89
2022/01/12 03:23:50;;;;;;;;;;;;;;;;;;;;;
2022/01/12 03:26:42;;;;;;;8.35;4.60;;;2.80;99.90;;;;;;1927825;74;21055;-89
2022/01/12 03:29:35;;;;;;;8.20;4.62;;;2.80;99.90;;;;;;1905339;75;21087;-89
2022/01/12 03:32:34;;;;;;;6.67;4.90;;;2.90;99.90;;;;;;1915844;74;21153;-89
2022/01/12 03:35:35;;;;;;;7.45;4.70;;;2.90;99.90;;;;;;1907113;74;21196;-89
2022/01/12 03:38:20;;;;;;;7.28;4.37;;;2.90;99.90;;;;;;1919225;74;21111;-89
2022/01/12 03:43:52;;;;;;;7.05;4.85;;;2.90;99.90;;;;;;1944856;72;22159;-89
2022/01/12 03:46:46;;;;;;;8.48;4.83;;;2.80;99.90;;;;;;1892317;75;21056;-89
2022/01/12 03:49:39;;;;;;;6.40;4.72;;;2.80;99.90;;;;;;1873431;76;21102;-88
2022/01/12 03:52:34;;;;;;;8.63;5.55;;;2.70;99.90;;;;;;1881398;75;21044;-89
2022/01/12 03:55:28;;;;;;;7.58;4.87;;;2.80;99.90;;;;;;1883319;75;21156;-90
2022/01/12 03:58:19;;;;;;;7.50;5.03;;;2.80;99.90;;;;;;1893789;75;21091;-88
2022/01/12 04:04:00;;;;;;;7.92;4.97;;;2.80;99.90;;;;;;1944414;72;22115;-90
2022/01/12 04:10:02;;;;;;;7.22;5.00;;;2.70;99.90;;;;;;1906726;75;21110;-89
2022/01/12 04:12:53;;;;;;;6.95;4.78;;;2.70;99.90;;;;;;1906090;75;21059;-89
2022/01/12 04:15:47;;;;;;;7.33;4.65;;;2.70;99.90;;;;;;1901078;75;21172;-89
2022/01/12 04:18:38;;;;;;;8.10;5.00;;;2.70;99.90;;;;;;1896379;75;21136;-89
2022/01/12 04:24:13;;;;;;;7.58;5.33;;;2.60;99.90;;;;;;1954409;72;22170;-90
2022/01/12 04:27:05;;;;;;;7.40;5.00;;;2.60;99.90;;;;;;1934095;73;21058;-90
2022/01/12 04:29:56;;;;;;;7.20;4.53;;;2.60;99.90;;;;;;1951583;73;21055;-89
2022/01/12 04:32:48;;;;;;;7.80;4.87;;;2.70;99.90;;;;;;1917830;75;21114;-89
2022/01/12 04:35:46;;;;;;;6.95;4.70;;;2.70;99.90;;;;;;1917568;75;21055;-89
2022/01/12 04:38:36;;;;;;;8.60;5.17;;;2.70;99.90;;;;;;1915096;75;21137;-89
2022/01/12 04:41:28;;;;;;;6.08;4.97;;;2.70;99.90;;;;;;1920920;73;21121;-90
2022/01/12 04:44:20;;;;;;;7.87;5.03;;;2.70;99.90;;;;;;1917456;75;21105;-89
2022/01/12 04:47:27;;;;;;;6.83;5.12;;;2.70;99.90;;;;;;1920644;73;21139;-89
2022/01/12 04:50:06;;;;;;;8.60;5.03;;;2.70;99.90;;;;;;1937351;73;21103;-89
2022/01/12 04:55:37;;;;;;;9.20;4.70;;;2.70;99.90;;;;;;1942427;72;22739;-90
2022/01/12 04:58:30;;;;;;;7.28;4.75;;;2.70;99.90;;;;;;1881100;75;21110;-90
2022/01/12 05:01:25;;;;;;;7.62;5.33;;;2.80;99.90;;;;;;1885074;76;21181;-89
2022/01/12 05:07:29;;;;;;;8.08;4.97;;;2.70;99.90;;;;;;1889594;75;21099;-89
2022/01/12 05:13:43;;;;;;;7.62;5.00;;;2.70;99.90;;;;;;1943597;72;22217;-91
2022/01/12 05:16:37;;;;;;;7.47;4.85;;;2.70;99.90;;;;;;1920572;74;21125;-91
2022/01/12 05:19:29;;;;;;;8.18;4.75;;;2.70;99.90;;;;;;1905453;75;21139;-89
2022/01/12 05:22:20;;;;;;;8.58;5.40;;;2.70;99.90;;;;;;1905352;75;21103;-89
2022/01/12 05:25:12;;;;;;;6.53;4.53;;;2.70;99.90;;;;;;1905131;75;21120;-92
2022/01/12 05:28:04;;;;;;;7.60;4.80;;;2.60;99.90;;;;;;1905379;75;21051;-90
2022/01/12 05:30:57;;;;;;;7.83;4.92;;;2.60;99.90;;;;;;1905301;75;21079;-90
2022/01/12 05:33:49;;;;;;;8.53;4.80;;;2.60;99.90;;;;;;1905357;75;21122;-89
2022/01/12 05:36:42;;;;;;;8.68;4.53;;;2.60;99.90;;;;;;1905957;75;21136;-89
2022/01/12 05:39:34;;;;;;;6.75;4.28;;;2.50;99.90;;;;;;1905388;75;21301;-90
2022/01/12 05:42:27;;;;;;;7.15;4.33;;;2.50;99.90;;;;;;1914478;74;21132;-91
2022/01/12 05:53:57;;;;;;;6.00;4.37;;;2.60;99.90;;;;;;1946872;72;20136;-90
2022/01/12 05:56:49;;;;;;;7.35;4.40;;;2.50;99.90;;;;;;1917620;75;21037;-90
2022/01/12 05:59:41;;;;;;;6.80;4.72;;;2.50;99.90;;;;;;1936584;73;21130;-89
2022/01/12 06:02:34;;;;;;;6.33;4.20;;;2.50;99.90;;;;;;1931186;73;21585;-90
2022/01/12 06:05:28;;;;;;;8.93;4.42;;;2.50;99.90;;;;;;1920234;73;21054;-89
2022/01/12 06:08:20;;;;;;;9.60;4.80;;;2.60;99.90;;;;;;1917505;75;21131;-89
2022/01/12 06:13:57;;;;;;;6.03;4.40;;;2.60;99.90;;;;;;1963779;72;22282;-90
2022/01/12 06:16:51;;;;;;;6.40;4.60;;;2.60;99.90;;;;;;1905549;75;21577;-89
2022/01/12 06:19:43;;;;;;;7.22;5.10;;;2.60;99.90;;;;;;1909616;74;21174;-89
2022/01/12 06:22:36;;;;;;;5.47;3.72;;;2.60;99.90;;;;;;1917270;74;21187;-90
2022/01/12 06:29:03;;;;;;;6.25;4.40;;;2.60;99.90;;;;;;2061402;69;22094;-90
2022/01/12 06:31:43;;;;;;;7.75;4.40;;;2.60;99.90;;;;;;2017083;70;21082;-90
2022/01/12 06:34:35;;;;;;;7.00;4.10;;;2.70;99.90;;;;;;1998593;71;21083;-90
2022/01/12 06:37:47;;;;;;;6.72;4.00;;;2.60;99.90;;;;;;1998681;71;21063;-89
2022/01/12 06:40:38;;;;;;;5.67;3.83;;;2.60;99.90;;;;;;1982621;72;21099;-91
2022/01/12 06:43:30;;;;;;;11.05;6.87;;;2.60;99.90;;;;;;1941345;74;21530;-89
2022/01/12 06:49:02;;;;;;;5.45;3.72;;;2.60;99.90;;;;;;1948090;72;22189;-90
2022/01/12 06:54:33;;;;;;;5.42;3.80;;;2.60;99.90;;;;;;1958198;72;22646;-90
2022/01/12 07:00:13;;;;;;;5.97;4.17;;;2.60;99.90;;;;;;1955027;72;22165;-90
2022/01/12 07:03:06;;;;;;;7.37;3.83;;;2.50;99.90;;;;;;1934576;73;21134;-88
2022/01/12 07:05:59;;;;;;;6.90;4.40;;;2.50;99.90;;;;;;1916033;73;21114;-89
2022/01/12 07:08:51;;;;;;;6.50;4.80;;;2.70;99.90;;;;;;1940116;73;21074;-88
2022/01/12 07:11:44;;;;;;;6.15;3.70;;;2.60;99.90;;;;;;1875236;73;21127;-89
2022/01/12 07:14:43;;;;;;;6.72;4.28;;;2.60;99.90;;;;;;1921386;73;21313;-88
2022/01/12 07:17:36;;;;;;;6.75;5.15;;;2.60;99.90;;;;;;1934810;73;21107;-87
2022/01/12 07:20:28;;;;;;;9.18;4.67;;;2.60;99.90;;;;;;1938234;73;21106;-89
2022/01/12 07:23:20;;;;;;;7.20;4.45;;;2.60;99.90;;;;;;1928596;73;21105;-88
2022/01/12 07:26:11;;;;;;;9.00;5.05;;;2.60;99.90;;;;;;1925760;73;21066;-88
2022/01/12 07:29:03;;;;;;;7.80;4.65;;;2.60;99.90;;;;;;1917935;75;21051;-89
2022/01/12 07:31:54;;;;;;;8.53;4.95;;;2.60;99.90;;;;;;1919495;73;21133;-90
2022/01/12 07:34:46;;;;;;;7.35;4.78;;;2.60;99.90;;;;;;1917338;75;21133;-89
2022/01/12 07:37:40;;;;;;;10.78;4.67;;;2.50;99.90;;;;;;1936557;73;21231;-88
2022/01/12 07:40:33;;;;;;;7.47;4.22;;;2.60;99.90;;;;;;1929194;73;21175;-88
2022/01/12 07:43:24;;;;;;;6.50;4.42;;;2.60;99.90;;;;;;1917604;75;21103;-89
2022/01/12 07:46:16;;;;;;;6.42;4.28;;;2.60;99.90;;;;;;1929010;73;21054;-87
2022/01/12 07:49:07;;;;;;;6.33;4.20;;;2.50;99.90;;;;;;1917495;75;21118;-89
2022/01/12 07:52:00;;;;;;;9.78;5.17;;;2.60;99.90;;;;;;1919383;73;21165;-89
2022/01/12 07:54:51;;;;;;;10.50;5.05;;;2.60;99.90;;;;;;1925872;73;21129;-88
2022/01/12 07:57:44;;;;;;;8.13;4.22;;;2.60;99.90;;;;;;1937503;73;21056;-88
2022/01/12 08:05:06;;;;;;;6.33;4.22;;;2.70;99.90;;;;;;2101833;68;22535;-90
2022/01/12 08:08:04;;;;;;;7.58;4.00;;;2.70;99.90;;;;;;2045660;69;21099;-89
2022/01/12 08:13:42;;;;;;;8.03;4.40;;;2.70;99.90;;;;;;1967091;72;22414;-89
2022/01/12 08:16:44;;;;;;;5.92;4.03;;;2.80;99.90;;;;;;1905220;74;21096;-90
2022/01/12 08:22:38;;;;;;;9.20;4.67;;;2.80;99.90;;;;;;1957848;72;22139;-89
2022/01/12 08:28:14;;;;;;;10.40;5.62;;;2.70;99.90;;;;;;1913851;72;28068;-89
2022/01/12 08:31:06;;;;;;;7.10;4.30;;;2.70;99.90;;;;;;1909223;75;21102;-89
2022/01/12 08:33:57;;;;;;;6.83;4.42;;;2.80;99.90;;;;;;1897205;75;21237;-90
2022/01/12 08:36:49;;;;;;;7.67;4.45;;;2.80;99.90;;;;;;1884733;76;21059;-89
2022/01/12 08:39:41;;;;;;;6.33;4.50;;;2.90;99.90;;;;;;1917129;75;21079;-90
2022/01/12 08:42:33;;;;;;;7.15;4.50;;;2.80;99.90;;;;;;1910679;75;21066;-90
2022/01/12 08:45:25;;;;;;;10.43;4.22;;;2.90;99.90;;;;;;1907060;75;21055;-89
2022/01/12 08:50:56;;;;;;;7.65;4.40;;;2.80;99.90;;;;;;1984226;71;22115;-86
2022/01/12 08:53:52;;;;;;;7.83;4.87;;;2.90;99.90;;;;;;1929529;74;21141;-86
2022/01/12 08:56:43;;;;;;;8.40;4.87;;;2.90;99.90;;;;;;1908425;74;21179;-85
2022/01/12 08:59:36;;;;;;;10.10;4.58;;;2.90;99.90;;;;;;1920138;74;21092;-86
2022/01/12 09:02:28;;;;;;;6.95;4.05;;;3.00;99.90;;;;;;1926152;74;21106;-86
2022/01/12 09:05:20;;;;;;;9.65;4.35;;;3.00;99.90;;;;;;1906963;75;21117;-86
2022/01/12 09:08:12;;;;;;;7.42;4.37;;;3.10;99.90;;;;;;1909590;74;21055;-87
2022/01/12 09:11:04;;;;;;;7.97;4.83;;;3.00;99.90;;;;;;1907011;75;21099;-87
2022/01/12 09:13:58;;;;;;;8.95;4.35;;;2.90;99.90;;;;;;1919462;74;21068;-86
2022/01/12 09:16:54;;;;;;;11.25;4.58;;;2.90;99.90;;;;;;1917949;74;21047;-86
2022/01/12 09:19:46;;;;;;;9.48;4.90;;;2.90;99.90;;;;;;1913237;74;21053;-86
2022/01/12 09:22:39;;;;;;;10.23;5.70;;;2.90;99.90;;;;;;1928533;74;21111;-86
2022/01/12 09:28:11;;;;;;;10.80;4.65;;;3.10;99.90;;;;;;1945739;72;22173;-86
2022/01/12 09:31:02;;;;;;;9.13;4.78;;;3.10;99.90;;;;;;1906426;75;21765;-86
2022/01/12 09:33:54;;;;;;;8.35;4.95;;;3.10;99.90;;;;;;1904153;75;21094;-86
2022/01/12 09:36:45;;;;;;;15.43;7.87;;;3.10;99.90;;;;;;1899050;75;21044;-86
2022/01/12 09:39:37;;;;;;;10.13;5.28;;;3.10;99.90;;;;;;1895486;75;21124;-86
2022/01/12 09:42:29;;;;;;;8.13;4.97;;;3.10;99.90;;;;;;1895393;75;21157;-86
2022/01/12 09:48:04;;;;;;;11.53;4.92;;;3.20;99.90;;;;;;1942840;72;22162;-86
2022/01/12 09:53:36;;;;;;;8.18;5.10;;;3.30;99.90;;;;;;1944948;72;22289;-85
2022/01/12 09:56:30;;;;;;;8.53;4.70;;;3.30;99.90;;;;;;1891110;75;21051;-86
2022/01/12 09:59:24;;;;;;;7.08;4.92;;;3.30;99.90;;;;;;1886711;75;21113;-86
2022/01/12 10:02:21;;;;;;;8.23;5.05;;;3.40;99.90;;;;;;1905673;75;21117;-86
2022/01/12 10:05:13;;;;;;;8.48;3.85;;;3.30;99.90;;;;;;1900542;75;21055;-86
2022/01/12 10:08:13;;;;;;;6.22;4.08;;;3.40;99.90;;;;;;1894695;75;21172;-85
2022/01/12 10:11:07;;;;;;;6.45;4.20;;;3.30;99.90;;;;;;1891462;75;21096;-85
2022/01/12 10:14:18;;;;;;;5.53;4.07;;;3.30;99.90;;;;;;1887561;75;21133;-88
2022/01/12 10:17:14;;;;;;;6.30;3.95;;;3.40;99.90;;;;;;1886726;75;21098;-86
2022/01/12 10:20:12;;;;;;;6.70;4.15;;;3.50;99.90;;;;;;1883741;75;21168;-86
2022/01/12 10:23:06;;;;;;;5.90;3.98;;;3.50;99.90;;;;;;1878174;75;21176;-86
2022/01/12 10:25:58;;;;;;;7.00;4.03;;;3.50;99.90;;;;;;1894494;75;21130;-87
2022/01/12 10:28:50;;;;;;;9.48;4.15;;;3.40;99.90;;;;;;1873088;76;21160;-86
2022/01/12 10:31:53;;;;;;;6.20;3.47;;;3.50;99.90;;;;;;1873179;76;21067;-86
2022/01/12 10:34:47;;;;;;;7.90;3.67;;;3.60;99.90;;;;;;1883574;75;21051;-87
2022/01/12 10:37:39;;;;;;;9.38;3.67;;;3.60;99.90;;;;;;1899177;75;21047;-86
2022/01/12 10:40:31;;;;;;;6.33;3.52;;;3.60;99.90;;;;;;1895668;75;21055;-86
2022/01/12 10:46:32;;;;;;;8.20;3.70;;;3.70;99.90;;;;;;1947637;72;22216;-86
2022/01/12 10:49:24;;;;;;;7.03;4.12;;;3.70;99.90;;;;;;1900888;75;21105;-86
2022/01/12 10:52:17;;;;;;;8.10;4.47;;;3.70;99.90;;;;;;1881325;75;21052;-87
2022/01/12 10:55:15;;;;;;;7.50;3.98;;;3.80;99.90;;;;;;1883348;75;21194;-87
2022/01/12 10:58:09;;;;;;;6.53;4.00;;;3.80;99.90;;;;;;1872524;76;21076;-87
2022/01/12 11:01:02;;;;;;;8.18;4.20;;;3.90;99.90;;;;;;1886362;75;21044;-86
2022/01/12 11:03:54;;;;;;;9.90;6.55;;;4.00;99.90;;;;;;1883444;75;21064;-86
2022/01/12 11:09:27;;;;;;;9.15;4.60;;;4.10;99.90;;;;;;1948619;72;22134;-86
2022/01/12 11:12:18;;;;;;;6.87;4.55;;;4.00;99.90;;;;;;1886667;75;21102;-86
2022/01/12 11:15:15;;;;;;;8.80;4.47;;;3.90;99.90;;;;;;1896673;75;21127;-86
2022/01/12 11:18:07;;;;;;;7.72;4.70;;;4.00;99.90;;;;;;1894551;75;21126;-86
2022/01/12 11:21:02;;;;;;;9.08;4.95;;;4.00;99.90;;;;;;1894095;75;21546;-86
2022/01/12 11:23:58;;;;;;;10.30;5.40;;;4.10;99.90;;;;;;1889608;75;21048;-86
2022/01/12 11:26:52;;;;;;;8.83;5.12;;;4.10;99.90;;;;;;1885194;75;21095;-87
2022/01/12 11:29:43;;;;;;;7.03;4.97;;;4.10;99.90;;;;;;1875850;75;21102;-86
2022/01/12 11:32:35;;;;;;;6.75;4.45;;;4.20;99.90;;;;;;1875830;75;21277;-87
2022/01/12 11:35:32;;;;;;;7.28;4.55;;;4.20;99.90;;;;;;1895853;75;21093;-86
2022/01/12 11:38:26;;;;;;;9.10;4.67;;;4.20;99.90;;;;;;1889223;75;21081;-87
2022/01/12 11:41:23;;;;;;;6.90;3.75;;;4.20;99.90;;;;;;1884238;75;21176;-87
2022/01/12 11:44:16;;;;;;;5.45;3.87;;;4.20;99.90;;;;;;1883567;75;21158;-86
2022/01/12 11:47:13;;;;;;;7.72;3.87;;;4.30;99.90;;;;;;1882417;75;21133;-88
2022/01/12 11:50:12;;;;;;;6.47;4.40;;;4.20;99.90;;;;;;1891901;75;21592;-86
2022/01/12 11:53:04;;;;;;;6.30;4.42;;;4.20;99.90;;;;;;1889022;75;21036;-86
2022/01/12 11:55:55;;;;;;;8.23;4.53;;;4.30;99.90;;;;;;1882942;75;21066;-87
2022/01/12 11:58:59;;;;;;;8.00;5.28;;;4.20;99.90;;;;;;1883552;75;21076;-86
2022/01/12 12:01:53;;;;;;;8.13;5.30;;;4.30;99.90;;;;;;1902349;75;21039;-87
2022/01/12 12:04:54;;;;;;;5.97;3.75;;;4.40;99.90;;;;;;1893146;75;21085;-86
2022/01/12 12:07:48;;;;;;;5.78;4.45;;;4.50;99.90;;;;;;1890152;75;21114;-86
2022/01/12 12:10:41;;;;;;;6.37;4.25;;;4.50;99.90;;;;;;1856675;76;21101;-86
2022/01/12 12:13:32;;;;;;;7.10;3.92;;;4.50;99.90;;;;;;1854936;76;21128;-86
2022/01/12 12:16:27;;;;;;;7.30;4.35;;;4.50;99.90;;;;;;1854540;76;21179;-86
2022/01/12 12:19:19;;;;;;;8.53;4.45;;;4.50;99.90;;;;;;1856155;76;21175;-86
2022/01/12 12:22:17;;;;;;;9.30;4.33;;;4.50;99.90;;;;;;1843689;77;21141;-86
2022/01/12 12:25:12;;;;;;;6.08;4.03;;;4.50;99.90;;;;;;1854479;76;21105;-86
2022/01/12 12:28:06;;;;;;;7.00;4.40;;;4.50;99.90;;;;;;1853766;76;21132;-86
2022/01/12 12:30:59;;;;;;;6.03;3.92;;;4.60;99.90;;;;;;1853778;76;21109;-86
2022/01/12 12:34:02;;;;;;;7.45;4.30;;;4.60;99.90;;;;;;1875085;76;21058;-86
2022/01/12 12:37:00;;;;;;;6.08;4.75;;;4.80;99.90;;;;;;1860027;76;21061;-86
2022/01/12 12:39:52;;;;;;;6.60;4.42;;;4.70;99.90;;;;;;1855473;76;21113;-87
2022/01/12 12:42:44;;;;;;;9.33;4.75;;;4.80;99.90;;;;;;1853876;75;21095;-86
2022/01/12 12:45:40;;;;;;;8.10;4.25;;;4.90;99.90;;;;;;1853802;76;21074;-87
2022/01/12 12:48:33;;;;;;;7.22;4.25;;;4.90;99.90;;;;;;1849608;76;21100;-86
2022/01/12 12:51:25;;;;;;;9.43;5.10;;;4.90;99.90;;;;;;1843150;77;21152;-87
2022/01/12 12:54:16;;;;;;;9.38;4.92;;;4.90;99.90;;;;;;1826960;78;21086;-87
2022/01/12 12:57:12;;;;;;;6.50;4.60;;;4.90;99.90;;;;;;1864273;76;21077;-87
2022/01/12 13:00:16;;;;;;;7.28;4.67;;;5.00;99.90;;;;;;1865733;76;21050;-87
2022/01/12 13:03:09;;;;;;;6.95;4.78;;;5.10;99.90;;;;;;1855331;76;21232;-85
2022/01/12 13:06:01;;;;;;;10.20;5.90;;;5.20;99.90;;;;;;1858150;76;21046;-86
2022/01/12 13:08:58;;;;;;;8.68;6.00;;;5.10;99.90;;;;;;1856071;74;21050;-86
2022/01/12 13:11:51;;;;;;;9.15;5.05;;;5.10;99.90;;;;;;1885370;75;21530;-86
2022/01/12 13:14:49;;;;;;;8.70;4.50;;;5.00;99.90;;;;;;1883660;75;21129;-86
2022/01/12 13:17:45;;;;;;;7.90;5.30;;;5.00;99.90;;;;;;1886209;75;21225;-87
2022/01/12 13:23:53;;;;;;;9.03;5.28;;;5.20;99.90;;;;;;1885833;75;21044;-87
2022/01/12 13:26:48;;;;;;;10.15;5.83;;;5.30;99.90;;;;;;1891976;75;21062;-86
2022/01/12 13:29:50;;;;;;;7.55;5.25;;;5.30;99.90;;;;;;1893207;75;21189;-87
2022/01/12 13:32:46;;;;;;;16.57;9.95;;;5.00;99.90;;;;;;1880221;75;21100;-86
2022/01/12 13:35:41;;;;;;;7.47;5.85;;;5.00;99.90;;;;;;1895784;75;21221;-87
2022/01/12 13:38:35;;;;;;;9.35;6.10;;;5.10;99.90;;;;;;1889030;75;21064;-86
2022/01/12 13:41:32;;;;;;;7.50;5.50;;;5.10;99.90;;;;;;1883737;75;21073;-86
2022/01/12 13:44:24;;;;;;;7.40;4.85;;;5.20;99.90;;;;;;1881575;75;21105;-86
2022/01/12 13:47:24;;;;;;;5.95;4.33;;;5.30;99.90;;;;;;1881535;75;21100;-86
2022/01/12 13:50:20;;;;;;;4.35;3.65;;;5.30;99.90;;;;;;1880315;75;21097;-85
2022/01/12 13:53:40;;;;;;;6.15;4.62;;;5.00;99.90;;;;;;1895383;75;21103;-85
2022/01/12 13:56:37;;;;;;;6.87;4.83;;;5.00;99.90;;;;;;1907447;75;21171;-86
2022/01/12 13:59:30;;;;;;;6.47;4.77;;;5.10;99.90;;;;;;1886170;75;21088;-87
2022/01/12 14:02:30;;;;;;;5.53;4.50;;;5.20;99.90;;;;;;1883803;75;21099;-86
2022/01/12 14:05:23;;;;;;;8.78;5.30;;;5.20;99.90;;;;;;1878145;75;21062;-86
2022/01/12 14:08:17;;;;;;;7.25;5.00;;;5.10;99.90;;;;;;1886575;75;21099;-86
2022/01/12 14:11:10;;;;;;;6.92;4.30;;;5.10;99.90;;;;;;1904702;75;21070;-86
2022/01/12 14:14:03;;;;;;;7.00;5.35;;;5.00;99.90;;;;;;1886427;75;21090;-86
2022/01/12 14:16:58;;;;;;;5.80;4.22;;;5.00;99.90;;;;;;1877920;75;21106;-86
2022/01/12 14:19:56;;;;;;;8.40;4.08;;;4.90;99.90;;;;;;1898726;75;21127;-86
2022/01/12 14:22:50;;;;;;;5.37;4.30;;;4.90;99.90;;;;;;1884274;75;21114;-86
2022/01/12 14:25:46;;;;;;;7.33;4.62;;;4.90;99.90;;;;;;1889310;75;21146;-86
2022/01/12 14:28:38;;;;;;;5.47;4.28;;;4.90;99.90;;;;;;1884512;75;21507;-86
2022/01/12 14:31:31;;;;;;;4.85;4.17;;;4.90;99.90;;;;;;1897768;75;21184;-87
2022/01/12 14:34:26;;;;;;;7.08;4.20;;;4.90;99.90;;;;;;1882033;75;21089;-87
2022/01/12 14:37:19;;;;;;;5.35;4.05;;;4.80;99.90;;;;;;1889536;75;21055;-86
2022/01/12 14:40:19;;;;;;;5.62;4.45;;;4.80;99.90;;;;;;1886573;75;21198;-87
2022/01/12 14:43:15;;;;;;;6.62;4.35;;;4.80;99.90;;;;;;1883609;75;21177;-86
2022/01/12 14:46:09;;;;;;;5.85;4.70;;;4.80;99.90;;;;;;1883080;75;21121;-87
2022/01/12 14:49:02;;;;;;;6.25;4.58;;;4.70;99.90;;;;;;1877261;75;21134;-86
2022/01/12 14:51:55;;;;;;;7.15;5.00;;;4.80;99.90;;;;;;1904565;75;21051;-86
2022/01/12 14:54:50;;;;;;;7.08;4.92;;;4.80;99.90;;;;;;1877864;75;21192;-87
2022/01/12 14:57:44;;;;;;;7.50;5.45;;;4.80;99.90;;;;;;1872081;75;21127;-86
2022/01/12 15:00:36;;;;;;;6.58;4.90;;;4.80;99.90;;;;;;1872516;77;21117;-85
2022/01/12 15:03:32;;;;;;;7.85;4.90;;;4.80;99.90;;;;;;1894090;75;21114;-87
2022/01/12 15:06:26;;;;;;;7.37;4.80;;;4.80;99.90;;;;;;1872385;77;21052;-86
2022/01/12 15:09:18;;;;;;;5.75;4.33;;;4.80;99.90;;;;;;1877518;75;21174;-86
2022/01/12 15:12:18;;;;;;;6.05;4.78;;;4.80;99.90;;;;;;1893625;74;21190;-86
2022/01/12 15:15:11;;;;;;;6.40;4.65;;;4.80;99.90;;;;;;1893647;75;21581;-86
2022/01/12 15:18:04;;;;;;;7.30;4.78;;;4.80;99.90;;;;;;1884701;75;21058;-87
2022/01/12 15:20:58;;;;;;;7.15;4.72;;;4.70;99.90;;;;;;1890050;75;21163;-86
2022/01/12 15:23:51;;;;;;;7.45;4.97;;;4.70;99.90;;;;;;1888821;75;21633;-86
2022/01/12 15:26:45;;;;;;;6.78;4.80;;;4.70;99.90;;;;;;1894485;75;21148;-87
2022/01/12 15:29:41;;;;;;;7.22;5.10;;;4.70;99.90;;;;;;1898697;75;21196;-86
2022/01/12 15:32:34;;;;;;;6.85;4.58;;;4.70;99.90;;;;;;1887215;75;21063;-85
2022/01/12 15:35:36;;;;;;;6.67;4.40;;;4.70;99.90;;;;;;1886455;75;21457;-85
2022/01/12 15:38:30;;;;;;;7.03;5.20;;;4.70;99.90;;;;;;1872441;77;21069;-85
2022/01/12 15:41:23;;;;;;;18.25;11.85;;;4.60;99.90;;;;;;1893880;75;21133;-86
2022/01/12 15:44:16;;;;;;;9.55;5.83;;;4.60;99.90;;;;;;1899263;75;21055;-86
2022/01/12 15:47:12;;;;;;;8.28;5.85;;;4.60;99.90;;;;;;1881998;75;21055;-86
2022/01/12 15:50:08;;;;;;;7.30;5.28;;;4.60;99.90;;;;;;1891326;75;21182;-86
2022/01/12 15:53:02;;;;;;;7.78;5.65;;;4.60;99.90;;;;;;1894935;75;21062;-86
2022/01/12 15:55:57;;;;;;;7.03;5.15;;;4.60;99.90;;;;;;1883360;75;21146;-86
2022/01/12 15:58:50;;;;;;;7.60;5.60;;;4.60;99.90;;;;;;1883275;75;21198;-86
2022/01/12 16:01:45;;;;;;;8.25;5.78;;;4.50;99.90;;;;;;1881372;75;21099;-86
2022/01/12 16:04:38;;;;;;;6.95;5.55;;;4.50;99.90;;;;;;1891209;75;21089;-86
2022/01/12 16:07:30;;;;;;;8.23;5.20;;;4.50;99.90;;;;;;1886156;75;21052;-87
2022/01/12 16:10:25;;;;;;;7.17;4.85;;;4.60;99.90;;;;;;1874185;75;21122;-87
2022/01/12 16:13:22;;;;;;;9.35;5.47;;;4.60;99.90;;;;;;1894688;75;21112;-86
2022/01/12 16:16:17;;;;;;;8.20;5.60;;;4.60;99.90;;;;;;1893841;75;21133;-87
2022/01/12 16:19:12;;;;;;;6.90;5.75;;;4.50;99.90;;;;;;1872520;77;21059;-86
2022/01/12 16:22:07;;;;;;;7.80;5.37;;;4.50;99.90;;;;;;1885904;75;21164;-86
2022/01/12 16:25:02;;;;;;;8.03;5.58;;;4.50;99.90;;;;;;1882768;75;21090;-86
2022/01/12 16:27:56;;;;;;;9.00;6.28;;;4.40;99.90;;;;;;1878126;75;21060;-86
2022/01/12 16:30:54;;;;;;;7.95;5.65;;;4.30;99.90;;;;;;1894806;75;21048;-86
2022/01/12 16:33:47;;;;;;;7.33;5.35;;;4.30;99.90;;;;;;1890258;75;21113;-86
2022/01/12 16:36:41;;;;;;;6.42;5.05;;;4.40;99.90;;;;;;1866727;76;21110;-86
2022/01/12 16:39:34;;;;;;;7.50;4.75;;;4.30;99.90;;;;;;1903950;75;21582;-86
2022/01/12 16:42:27;;;;;;;6.92;5.10;;;4.20;99.90;;;;;;1877590;75;21200;-85
2022/01/12 16:45:22;;;;;;;5.50;4.80;;;4.30;99.90;;;;;;1893922;75;21044;-86
2022/01/12 16:48:17;;;;;;;8.55;5.47;;;4.40;99.90;;;;;;1883864;75;21056;-85
2022/01/12 16:51:09;;;;;;;7.00;5.33;;;4.50;99.90;;;;;;1848196;77;21071;-86
2022/01/12 16:54:01;;;;;;;7.05;4.83;;;4.30;99.90;;;;;;1882576;75;21068;-86
2022/01/12 16:56:52;;;;;;;8.15;5.53;;;4.20;99.90;;;;;;1881431;75;21120;-87
2022/01/12 16:59:45;;;;;;;7.20;5.45;;;4.20;99.90;;;;;;1872474;77;21125;-86
2022/01/12 17:02:37;;;;;;;7.08;5.30;;;4.10;99.90;;;;;;1885174;75;21044;-86
2022/01/12 17:05:29;;;;;;;7.60;5.28;;;4.10;99.90;;;;;;1882772;75;21138;-86
2022/01/12 17:08:21;;;;;;;7.33;5.92;;;4.10;99.90;;;;;;1882748;75;21095;-87
2022/01/12 17:11:13;;;;;;;8.85;5.42;;;4.10;99.90;;;;;;1885736;75;21161;-87
2022/01/12 17:14:05;;;;;;;7.12;5.65;;;4.10;99.90;;;;;;1885688;75;21087;-86
2022/01/12 17:17:31;;;;;;;7.42;5.95;;;4.20;99.90;;;;;;1894655;75;21129;-86
2022/01/12 17:20:22;;;;;;;10.25;5.60;;;4.20;99.90;;;;;;1884871;75;21112;-86
2022/01/12 17:23:16;;;;;;;7.45;5.87;;;4.20;99.90;;;;;;1885751;75;21125;-87
2022/01/12 17:26:09;;;;;;;7.75;5.78;;;4.10;99.90;;;;;;1882303;75;21110;-87
2022/01/12 17:31:45;;;;;;;6.45;5.15;;;4.10;99.90;;;;;;1941315;72;22239;-86
2022/01/12 17:34:36;;;;;;;8.53;6.62;;;4.20;99.90;;;;;;1918455;74;21111;-86
2022/01/12 17:37:29;;;;;;;7.72;6.00;;;4.10;99.90;;;;;;1919835;74;21050;-86
2022/01/12 17:40:21;;;;;;;8.68;6.45;;;4.10;99.90;;;;;;1920558;74;21079;-86
2022/01/12 17:43:18;;;;;;;8.98;6.30;;;4.10;99.90;;;;;;1900182;74;21547;-85
2022/01/12 17:46:07;;;;;;;10.30;6.78;;;4.20;99.90;;;;;;1919534;74;21129;-86